Sheridan, WY

3:32 AM MDT on May 07, 2015 (GMT -0600)
Johnson County | | Change Station
CLOSE
Current Station
Airport
Location: Buffalo,
Elevation: 4967 ft
Nearby Weather Stations

Elev 4967 ft 44.38 °N, 106.72 °W | Updated 39 minutes ago

Overcast
Overcast
44 °F
Feels Like 36 °F
N
21
Wind Variable Wind from NNW
Gusts 28 mph

Today
High -- | Low -- °F
--% Chance of Precip.
Yesterday
High -- | Low -- °F
Precip. -- in
5:49 AM 8:20 PM
Waning Gibbous, 89% visible
Pressure 29.90 in
Visibility 10.0 miles
Clouds Scattered Clouds 4200 ft
Overcast 10000 ft
Windchill 36 °F
Dew Point 35 °F
Humidity 71%
Rainfall 0.00 in
Snow Depth Not available.
UV 0 out of 12
Pollen 7.60 out of 12
Air Quality Not available.
Flu Activity Sporadic
METAR KBYG 070853Z AUTO 34018G24KT 10SM SCT042 OVC100 07/02 A2992 RMK AO2 SLP123 T00670017 50005

More Conditions Fewer Conditions

Pressure 29.90 in
Visibility 10.0 miles
Clouds Scattered Clouds 4200 ft
Overcast 10000 ft
Windchill 36 °F
Dew Point 35 °F
Humidity 71%
Rainfall 0.00 in
Snow Depth Not available.
UV 0 out of 12
Pollen 7.60 out of 12
Air Quality Not available.
Flu Activity Sporadic
METAR KBYG 070853Z AUTO 34018G24KT 10SM SCT042 OVC100 07/02 A2992 RMK AO2 SLP123 T00670017 50005

More Conditions Fewer Conditions

10-Day Weather Forecast

Almanac

Astronomy

May. 07, 2015 Rise Set
Actual Time
Civil Twilight
Nautical Twilight
Astronomical Twilight
Moon
Length of Visible Light
Length of Day
Tomorrow will be .
, % of the Moon is Illuminated

Today's Extremes

State Highs State Lows

Community

WunderPhotos

Upload Photos

1,819,133 photos uploaded!

WunderBlogs® & News

Nearby

Air Quality

  Air Quality AQ Index Pollutant
Not available.

Snow Depth

Station Depth Elevation

Earthquake Activity

City Distance Mag. Time & Date
Minimum magnitude displayed is 2.5.

Coastal Water Temperatures

Place Temperature

Stations

Nearby Weather Stations

Station Location Temp. Windchill Dew Point Humidity Wind Precip. Elev Updated Type